createdAt,value
2018-03-07T00:01:34.250Z,91.87
2018-03-07T00:04:01.800Z,99.65
2018-03-07T00:06:29.329Z,124.35
2018-03-07T00:08:57.077Z,106.43
2018-03-07T00:11:24.611Z,92.15
2018-03-07T00:13:52.246Z,99.97
2018-03-07T00:16:19.818Z,95.15
2018-03-07T00:18:47.354Z,122.78
2018-03-07T00:21:14.874Z,98.25
2018-03-07T00:23:42.430Z,92.82
2018-03-07T00:26:09.942Z,93.82
2018-03-07T00:28:37.475Z,89.40
2018-03-07T00:31:05.085Z,86.40
2018-03-07T00:33:32.702Z,95.43
2018-03-07T00:36:00.254Z,89.15
2018-03-07T00:38:27.795Z,113.90
2018-03-07T00:40:55.350Z,104.03
2018-03-07T00:43:23.283Z,88.00
2018-03-07T00:45:50.926Z,91.43
2018-03-07T00:48:18.464Z,85.72
2018-03-07T00:50:46.031Z,85.93
2018-03-07T00:53:13.579Z,86.35
2018-03-07T00:55:41.108Z,88.07
2018-03-07T00:58:08.618Z,88.30
2018-03-07T01:00:36.179Z,79.20
2018-03-07T01:03:03.748Z,86.57
2018-03-07T01:05:32.120Z,82.57
2018-03-07T01:07:59.881Z,87.07
2018-03-07T01:10:27.598Z,76.55
2018-03-07T01:12:55.107Z,78.82
2018-03-07T01:15:22.654Z,77.10
2018-03-07T01:17:50.237Z,84.03
2018-03-07T01:20:19.566Z,82.90
2018-03-07T01:22:47.110Z,77.10
2018-03-07T01:25:31.460Z,82.30
2018-03-07T01:27:59.021Z,80.97
2018-03-07T01:30:26.757Z,77.43
2018-03-07T01:32:54.637Z,74.60
2018-03-07T01:35:22.171Z,73.60
2018-03-07T01:37:49.736Z,69.00
2018-03-07T01:40:17.371Z,72.93
2018-03-07T01:42:45.135Z,62.60
2018-03-07T01:45:12.670Z,57.40
2018-03-07T01:47:40.254Z,54.53
2018-03-07T01:50:07.809Z,60.03
2018-03-07T01:52:35.336Z,50.53
2018-03-07T01:55:02.857Z,50.72
2018-03-07T01:57:30.379Z,48.28
2018-03-07T01:59:57.909Z,54.53
2018-03-07T02:02:25.533Z,53.28
2018-03-07T02:04:53.703Z,50.80
2018-03-07T02:07:21.219Z,54.45
2018-03-07T02:09:48.741Z,54.65
2018-03-07T02:12:16.287Z,53.25
2018-03-07T02:14:43.824Z,45.97
2018-03-07T02:17:11.336Z,63.30
2018-03-07T02:19:39.205Z,51.70
2018-03-07T02:22:06.979Z,55.78
2018-03-07T02:24:34.503Z,57.78
2018-03-07T02:27:02.042Z,55.88
2018-03-07T02:29:29.616Z,47.35
2018-03-07T02:31:57.544Z,48.78
2018-03-07T02:34:25.074Z,61.15
2018-03-07T02:36:53.397Z,55.35
2018-03-07T02:39:21.127Z,54.03
2018-03-07T02:41:48.810Z,55.42
2018-03-07T02:44:16.855Z,55.38
2018-03-07T02:46:45.600Z,59.15
2018-03-07T02:49:13.157Z,57.50
2018-03-07T02:51:40.698Z,51.13
2018-03-07T02:54:08.210Z,57.75
2018-03-07T02:56:36.385Z,55.95
2018-03-07T02:59:03.887Z,48.75
2018-03-07T03:01:31.448Z,53.87
2018-03-07T03:03:59.005Z,48.60
2018-03-07T03:06:26.567Z,44.63
2018-03-07T03:08:54.066Z,46.13
2018-03-07T03:11:21.608Z,35.25
2018-03-07T03:13:49.139Z,39.10
2018-03-07T03:16:16.634Z,35.33
2018-03-07T03:18:44.126Z,29.83
2018-03-07T03:21:11.707Z,31.05
2018-03-07T03:23:39.277Z,31.02
2018-03-07T03:26:06.831Z,30.55
2018-03-07T03:28:34.383Z,28.85
2018-03-07T03:31:01.956Z,29.55
2018-03-07T03:33:29.478Z,24.60
2018-03-07T03:35:57.562Z,26.10
2018-03-07T03:38:25.061Z,27.15
2018-03-07T03:40:53.385Z,31.52
2018-03-07T03:43:21.242Z,26.62
2018-03-07T03:45:48.945Z,29.92
2018-03-07T03:48:16.493Z,34.40
2018-03-07T03:50:44.183Z,36.22
2018-03-07T03:53:11.769Z,40.90
2018-03-07T03:55:39.289Z,39.90
2018-03-07T03:58:06.859Z,40.55
2018-03-07T04:00:34.368Z,31.70
2018-03-07T04:03:01.925Z,37.90
2018-03-07T04:05:29.445Z,41.20
2018-03-07T04:07:56.976Z,42.03
2018-03-07T04:10:24.503Z,49.08
2018-03-07T04:12:52.041Z,38.25
2018-03-07T04:15:19.601Z,40.72
2018-03-07T04:17:47.150Z,53.28
2018-03-07T04:20:14.656Z,41.55
2018-03-07T04:22:43.073Z,42.55
2018-03-07T04:25:10.652Z,37.50
2018-03-07T04:27:38.248Z,41.80
2018-03-07T04:30:05.781Z,44.00
2018-03-07T04:32:33.275Z,37.08
2018-03-07T04:35:00.849Z,34.17
2018-03-07T04:37:28.374Z,40.80
2018-03-07T04:39:56.246Z,39.50
2018-03-07T04:42:24.031Z,36.30
2018-03-07T04:44:51.550Z,34.42
2018-03-07T04:47:20.679Z,36.83
2018-03-07T04:49:48.353Z,37.92
2018-03-07T04:52:16.590Z,44.75
2018-03-07T04:54:44.124Z,32.08
2018-03-07T04:57:11.645Z,36.85
2018-03-07T04:59:39.481Z,34.75
2018-03-07T05:02:07.815Z,34.42
2018-03-07T05:04:35.418Z,43.72
2018-03-07T05:07:02.956Z,37.28
2018-03-07T05:09:30.521Z,39.40
2018-03-07T05:11:58.065Z,41.67
2018-03-07T05:14:25.906Z,41.10
2018-03-07T05:16:53.810Z,46.25
2018-03-07T05:19:21.675Z,38.97
2018-03-07T05:21:49.227Z,46.17
2018-03-07T05:24:16.793Z,37.75
2018-03-07T05:26:44.319Z,38.33
2018-03-07T05:29:11.873Z,33.50
2018-03-07T05:31:39.407Z,37.63
2018-03-07T05:34:06.926Z,33.17
2018-03-07T05:36:34.471Z,38.53
2018-03-07T05:39:02.746Z,33.97
2018-03-07T05:41:30.456Z,30.48
2018-03-07T05:43:57.994Z,32.08
2018-03-07T05:46:25.503Z,31.67
2018-03-07T05:48:53.048Z,35.88
2018-03-07T05:51:20.620Z,41.00
2018-03-07T05:53:48.159Z,32.72
2018-03-07T05:56:15.677Z,29.48
2018-03-07T05:58:43.214Z,34.78
2018-03-07T06:01:10.808Z,27.10
2018-03-07T06:03:38.483Z,33.47
2018-03-07T06:06:06.316Z,29.83
2018-03-07T06:08:33.893Z,30.42
2018-03-07T06:11:01.407Z,30.95
2018-03-07T06:13:28.986Z,31.27
2018-03-07T06:15:56.515Z,30.45
2018-03-07T06:18:24.054Z,31.05
2018-03-07T06:20:51.582Z,38.15
2018-03-07T06:23:19.085Z,30.48
2018-03-07T06:25:46.850Z,29.52
2018-03-07T06:28:14.591Z,29.58
2018-03-07T06:30:42.152Z,28.83
2018-03-07T06:33:09.688Z,33.92
2018-03-07T06:35:37.613Z,33.45
2018-03-07T06:38:05.197Z,34.78
2018-03-07T06:40:32.812Z,33.78
2018-03-07T06:43:00.361Z,29.27
2018-03-07T06:45:27.976Z,33.33
2018-03-07T06:47:55.675Z,32.70
2018-03-07T06:50:23.205Z,33.65
2018-03-07T06:52:50.881Z,26.10
2018-03-07T06:55:19.112Z,25.40
2018-03-07T06:57:46.630Z,24.10
2018-03-07T07:00:14.279Z,28.38
2018-03-07T07:02:41.806Z,22.02
2018-03-07T07:05:09.333Z,24.85
2018-03-07T07:07:36.855Z,24.05
2018-03-07T07:10:04.620Z,24.75
2018-03-07T07:12:32.275Z,21.25
2018-03-07T07:14:59.863Z,21.77
2018-03-07T07:17:27.385Z,21.25
2018-03-07T07:19:54.947Z,26.40
2018-03-07T07:22:22.458Z,25.00
2018-03-07T07:24:49.989Z,38.67
2018-03-07T07:27:17.515Z,26.67
2018-03-07T07:29:45.040Z,27.37
2018-03-07T07:32:12.547Z,26.80
2018-03-07T07:34:40.465Z,20.25
2018-03-07T07:37:07.994Z,24.08
2018-03-07T07:39:35.632Z,18.98
2018-03-07T07:42:03.170Z,20.77
2018-03-07T07:44:31.269Z,16.52
2018-03-07T07:46:58.835Z,15.70
2018-03-07T07:49:26.500Z,22.45
2018-03-07T07:51:54.066Z,15.20
2018-03-07T07:54:21.625Z,10.27
2018-03-07T07:56:49.152Z,12.60
2018-03-07T07:59:16.723Z,12.90
2018-03-07T08:01:44.254Z,12.45
2018-03-07T08:04:11.788Z,35.90
2018-03-07T08:06:39.301Z,22.30
2018-03-07T08:09:06.988Z,11.23
2018-03-07T08:11:34.494Z,15.77
2018-03-07T08:14:02.018Z,9.98
2018-03-07T08:16:30.021Z,10.60
2018-03-07T08:18:58.093Z,9.67
2018-03-07T08:21:25.614Z,18.45
2018-03-07T08:23:54.394Z,18.97
2018-03-07T08:26:21.903Z,10.80
2018-03-07T08:28:49.392Z,10.87
2018-03-07T08:31:16.917Z,10.50
2018-03-07T08:33:44.473Z,8.80
2018-03-07T08:36:11.969Z,13.00
2018-03-07T08:38:39.540Z,10.27
2018-03-07T08:41:07.623Z,9.50
2018-03-07T08:43:35.170Z,9.80
2018-03-07T08:46:02.765Z,10.13
2018-03-07T08:48:30.281Z,9.50
2018-03-07T08:50:57.816Z,10.67
2018-03-07T08:53:26.489Z,9.15
2018-03-07T08:55:55.590Z,8.68
2018-03-07T08:58:23.345Z,6.20
2018-03-07T09:00:51.378Z,9.83
2018-03-07T09:03:18.999Z,5.73
2018-03-07T09:05:46.550Z,7.40
2018-03-07T09:08:14.042Z,3.00
2018-03-07T09:10:41.549Z,1.90
2018-03-07T09:13:09.067Z,1.98
2018-03-07T09:15:36.840Z,3.60
2018-03-07T09:18:04.320Z,3.60
2018-03-07T09:20:31.812Z,1.60
2018-03-07T09:22:59.377Z,5.30
2018-03-07T09:25:28.135Z,3.20
2018-03-07T09:27:56.708Z,3.47
2018-03-07T09:30:28.398Z,1.53
2018-03-07T09:32:56.380Z,1.80
2018-03-07T09:35:24.025Z,3.07
2018-03-07T09:37:51.542Z,1.90
2018-03-07T09:40:19.075Z,1.33
2018-03-07T09:42:46.609Z,0.73
2018-03-07T09:45:14.887Z,0.93
2018-03-07T09:47:42.475Z,1.37
2018-03-07T09:50:10.075Z,1.40
2018-03-07T09:52:37.605Z,0.70
2018-03-07T09:55:05.115Z,0.80
2018-03-07T09:57:32.814Z,1.57
2018-03-07T10:00:00.427Z,1.03
2018-03-07T10:02:28.023Z,1.30
2018-03-07T10:04:56.400Z,1.73
2018-03-07T10:07:24.023Z,0.70
2018-03-07T10:09:51.956Z,0.77
2018-03-07T10:12:20.453Z,0.90
2018-03-07T10:14:47.961Z,2.10
2018-03-07T10:17:15.476Z,1.03
2018-03-07T10:19:43.934Z,1.10
2018-03-07T10:22:11.420Z,1.20
2018-03-07T10:24:38.950Z,0.70
2018-03-07T10:27:06.578Z,1.10
2018-03-07T10:29:35.051Z,3.30
2018-03-07T10:32:02.588Z,1.37
2018-03-07T10:34:30.103Z,1.50
2018-03-07T10:36:57.849Z,0.90
2018-03-07T10:39:25.377Z,0.80
2018-03-07T10:41:53.974Z,2.00
2018-03-07T10:44:21.526Z,0.90
2018-03-07T10:46:49.044Z,1.17
2018-03-07T10:49:16.614Z,0.80
2018-03-07T10:52:07.027Z,0.80
2018-03-07T10:54:34.655Z,1.30
2018-03-07T10:57:02.331Z,1.60
2018-03-07T10:59:29.897Z,0.70
2018-03-07T11:01:57.445Z,1.07
2018-03-07T11:04:24.961Z,0.80
2018-03-07T11:06:52.481Z,6.97
2018-03-07T11:09:20.083Z,0.70
2018-03-07T11:11:47.644Z,1.20
2018-03-07T11:14:16.366Z,1.40
2018-03-07T11:16:44.092Z,0.70
2018-03-07T11:19:11.652Z,0.70
2018-03-07T11:21:39.452Z,3.17
2018-03-07T11:24:07.373Z,1.20
2018-03-07T11:26:35.673Z,0.77
2018-03-07T11:29:03.252Z,1.47
2018-03-07T11:31:30.810Z,0.70
2018-03-07T11:33:58.637Z,0.90
2018-03-07T11:36:26.140Z,0.70
2018-03-07T11:38:53.696Z,2.00
2018-03-07T11:41:21.220Z,0.90
2018-03-07T11:43:50.199Z,1.53
2018-03-07T11:46:18.026Z,2.10
2018-03-07T11:48:45.519Z,0.70
2018-03-07T11:51:13.048Z,2.80
2018-03-07T11:53:40.538Z,3.00
2018-03-07T11:56:09.767Z,3.53
2018-03-07T11:58:40.357Z,0.73
2018-03-07T12:01:09.744Z,1.40
2018-03-07T12:03:40.395Z,1.80
2018-03-07T12:06:09.859Z,0.80
2018-03-07T12:08:37.739Z,2.07
2018-03-07T12:11:05.559Z,1.47
2018-03-07T12:13:34.624Z,0.90
2018-03-07T12:16:02.148Z,0.70
2018-03-07T12:18:30.475Z,1.83
2018-03-07T12:20:57.956Z,0.80
2018-03-07T12:23:25.465Z,1.77
2018-03-07T12:25:54.371Z,3.47
2018-03-07T12:28:22.290Z,1.33
2018-03-07T12:30:51.508Z,2.50
2018-03-07T12:33:19.513Z,2.13
2018-03-07T12:35:47.202Z,1.00
2018-03-07T12:38:14.731Z,1.00
2018-03-07T12:40:42.261Z,3.23
2018-03-07T12:43:11.004Z,1.10
2018-03-07T12:45:40.187Z,2.00
2018-03-07T12:48:07.712Z,2.60
2018-03-07T12:50:38.204Z,0.90
2018-03-07T12:53:06.201Z,4.57
2018-03-07T12:55:33.732Z,1.40
2018-03-07T12:58:01.232Z,1.50
2018-03-07T13:00:30.390Z,2.20
2018-03-07T13:03:00.544Z,2.17
2018-03-07T13:05:28.327Z,1.73
2018-03-07T13:07:55.989Z,2.80
2018-03-07T13:10:24.589Z,1.30
2018-03-07T13:12:54.392Z,6.40
2018-03-07T13:15:36.574Z,2.13
2018-03-07T13:18:04.135Z,2.03
2018-03-07T13:20:32.901Z,0.67
2018-03-07T13:23:00.542Z,0.70
2018-03-07T13:25:28.075Z,1.23
2018-03-07T13:27:55.637Z,5.20
2018-03-07T13:30:23.213Z,0.70
2018-03-07T13:32:52.425Z,1.93
2018-03-07T13:35:20.305Z,1.73
2018-03-07T13:37:47.815Z,7.60
2018-03-07T13:40:16.852Z,1.93
2018-03-07T13:42:44.431Z,1.10
2018-03-07T13:45:14.282Z,1.27
2018-03-07T13:47:44.098Z,2.27
2018-03-07T13:50:13.210Z,3.83
2018-03-07T13:52:43.092Z,7.00
2018-03-07T13:55:11.607Z,4.00
2018-03-07T13:57:39.165Z,3.43
2018-03-07T14:00:06.801Z,1.43
2018-03-07T14:02:34.422Z,2.90
2018-03-07T14:05:02.566Z,1.37
2018-03-07T14:07:30.260Z,2.60
2018-03-07T14:09:57.772Z,0.90
2018-03-07T14:12:26.303Z,1.83
2018-03-07T14:14:54.245Z,2.20
2018-03-07T14:17:22.294Z,1.23
2018-03-07T14:19:50.454Z,1.00
2018-03-07T14:22:18.094Z,1.60
2018-03-07T14:24:47.235Z,1.50
2018-03-07T14:27:32.799Z,2.17
2018-03-07T14:30:02.341Z,0.90
2018-03-07T14:32:31.448Z,1.10
2018-03-07T14:35:02.275Z,1.57
2018-03-07T14:37:30.268Z,1.57
2018-03-07T14:39:59.574Z,0.70
2018-03-07T14:42:28.059Z,0.90
2018-03-07T14:44:55.805Z,8.20
2018-03-07T14:47:25.327Z,0.90
2018-03-07T14:49:54.330Z,1.37
2018-03-07T14:52:22.402Z,1.63
2018-03-07T14:54:50.995Z,3.90
2018-03-07T14:57:19.989Z,1.90
2018-03-07T14:59:49.290Z,1.63
2018-03-07T15:02:18.547Z,1.00
2018-03-07T15:04:51.588Z,2.10
2018-03-07T15:07:21.440Z,2.67
2018-03-07T15:09:50.973Z,1.47
2018-03-07T15:12:19.315Z,7.77
2018-03-07T15:14:47.255Z,1.87
2018-03-07T15:17:14.775Z,2.10
2018-03-07T15:22:40.824Z,1.40
2018-03-07T15:25:08.696Z,2.00
2018-03-07T15:27:37.472Z,1.00
2018-03-07T15:30:06.791Z,1.53
2018-03-07T15:32:37.189Z,2.30
2018-03-07T15:35:07.238Z,1.20
2018-03-07T15:37:37.046Z,1.43
2018-03-07T15:40:05.434Z,1.40
2018-03-07T15:42:33.969Z,3.43
2018-03-07T15:47:59.495Z,4.13
2018-03-07T15:50:28.834Z,3.20
2018-03-07T15:52:57.584Z,1.33
2018-03-07T15:55:26.571Z,4.20
2018-03-07T15:57:55.874Z,2.37
2018-03-07T16:00:23.730Z,2.40
2018-03-07T16:02:51.598Z,1.63
2018-03-07T16:05:21.047Z,3.50
2018-03-07T16:07:50.196Z,2.60
2018-03-07T16:10:18.019Z,2.63
2018-03-07T16:12:46.898Z,6.83
2018-03-07T16:15:16.424Z,4.47
2018-03-07T16:17:44.249Z,9.63
2018-03-07T16:20:13.279Z,2.70
2018-03-07T16:22:41.035Z,3.30
2018-03-07T16:31:22.650Z,2.33
2018-03-07T16:33:50.404Z,2.60
2018-03-07T16:36:18.220Z,5.80
2018-03-07T16:38:47.470Z,5.33
2018-03-07T16:41:15.351Z,2.77
2018-03-07T16:43:44.226Z,3.10
2018-03-07T16:46:13.786Z,1.00
2018-03-07T16:48:41.696Z,0.97
2018-03-07T16:51:09.608Z,1.80
2018-03-07T16:56:39.864Z,3.13
2018-03-07T16:59:09.587Z,2.80
2018-03-07T17:01:39.414Z,4.70
2018-03-07T17:04:12.445Z,3.13
2018-03-07T17:06:40.265Z,3.33
2018-03-07T17:09:09.532Z,3.40
2018-03-07T17:11:38.066Z,2.50
2018-03-07T17:14:07.553Z,3.73
2018-03-07T17:16:36.648Z,2.07
2018-03-07T17:19:05.275Z,1.00
2018-03-07T17:21:33.500Z,4.40
2018-03-07T17:24:02.762Z,0.93
2018-03-07T17:26:34.872Z,4.07
2018-03-07T17:29:04.911Z,1.77
2018-03-07T17:31:33.256Z,3.65
2018-03-07T17:34:00.731Z,1.70
2018-03-07T17:36:29.097Z,3.08
2018-03-07T17:39:03.492Z,1.77
2018-03-07T17:41:31.949Z,2.70
2018-03-07T17:44:02.378Z,0.88
2018-03-07T17:46:30.552Z,3.15
2018-03-07T17:48:59.206Z,1.83
2018-03-07T17:51:28.077Z,3.25
2018-03-07T17:53:56.742Z,1.10
2018-03-07T17:56:25.483Z,4.37
2018-03-07T17:58:53.827Z,5.70
2018-03-07T18:01:22.915Z,1.12
2018-03-07T18:03:56.983Z,1.08
2018-03-07T18:06:26.821Z,2.30
2018-03-07T18:08:57.034Z,2.65
2018-03-07T18:11:26.560Z,2.55
2018-03-07T18:13:54.087Z,4.78
2018-03-07T18:16:21.957Z,3.00
2018-03-07T18:18:49.653Z,1.60
2018-03-07T18:21:18.038Z,3.53
2018-03-07T18:23:47.317Z,1.35
2018-03-07T18:26:17.217Z,1.90
2018-03-07T18:28:46.204Z,1.80
2018-03-07T18:31:15.120Z,1.83
2018-03-07T18:33:43.645Z,4.20
2018-03-07T18:36:12.854Z,2.12
2018-03-07T18:38:41.102Z,3.47
2018-03-07T18:41:09.182Z,8.85
2018-03-07T18:49:34.210Z,2.25
2018-03-07T18:52:04.042Z,2.12
2018-03-07T18:54:32.825Z,3.80
2018-03-07T18:57:00.724Z,6.50
2018-03-07T18:59:28.522Z,5.47
2018-03-07T19:01:56.127Z,8.45
2018-03-07T19:04:38.310Z,3.20
2018-03-07T19:07:05.976Z,2.22
2018-03-07T19:09:33.768Z,1.08
2018-03-07T19:12:01.465Z,3.10
2018-03-07T19:14:34.450Z,2.12
2018-03-07T19:17:02.365Z,0.98
2018-03-07T19:19:30.303Z,1.05
2018-03-07T19:21:57.952Z,1.00
2018-03-07T19:24:30.008Z,1.25
2018-03-07T19:26:57.619Z,4.85
2018-03-07T19:29:25.188Z,3.15
2018-03-07T19:32:03.905Z,0.98
2018-03-07T19:37:35.171Z,1.10
2018-03-07T19:40:05.338Z,1.60
2018-03-07T19:42:34.318Z,0.93
2018-03-07T19:45:04.070Z,2.42
2018-03-07T19:47:38.410Z,2.60
2018-03-07T19:50:24.709Z,3.22
2018-03-07T19:52:58.119Z,0.95
2018-03-07T19:58:19.726Z,1.60
2018-03-07T20:00:48.662Z,2.10
2018-03-07T20:03:17.524Z,4.93
2018-03-07T20:11:32.773Z,2.28
2018-03-07T20:14:09.357Z,2.45
2018-03-07T20:16:39.389Z,3.37
2018-03-07T20:19:07.569Z,3.60
2018-03-07T20:21:40.056Z,4.15
2018-03-07T20:24:15.879Z,1.62
2018-03-07T20:26:45.803Z,2.30
2018-03-07T20:29:14.298Z,3.05
2018-03-07T20:31:44.395Z,1.70
2018-03-07T20:34:13.612Z,8.73
2018-03-07T20:36:42.591Z,4.40
2018-03-07T20:39:10.440Z,2.60
2018-03-07T20:41:38.950Z,2.85
2018-03-07T20:44:06.561Z,1.70
2018-03-07T20:46:39.351Z,2.10
2018-03-07T20:49:08.436Z,1.40
2018-03-07T20:51:37.413Z,1.37
2018-03-07T20:54:05.258Z,1.42
2018-03-07T20:56:34.920Z,1.92
2018-03-07T20:59:03.282Z,1.40
2018-03-07T21:01:38.829Z,1.98
2018-03-07T21:04:07.087Z,1.75
2018-03-07T21:06:34.736Z,1.83
2018-03-07T21:09:09.271Z,2.00
2018-03-07T21:11:37.833Z,2.75
2018-03-07T21:14:11.494Z,1.52
2018-03-07T21:16:41.157Z,1.75
2018-03-07T21:19:10.453Z,2.08
2018-03-07T21:21:40.262Z,1.95
2018-03-07T21:24:13.356Z,2.45
2018-03-07T21:26:42.232Z,3.05
2018-03-07T21:29:09.858Z,2.25
2018-03-07T21:31:39.258Z,2.00
2018-03-07T21:37:10.507Z,2.00
2018-03-07T21:39:40.332Z,1.50
2018-03-07T21:42:08.636Z,2.03
2018-03-07T21:47:34.286Z,1.90
2018-03-07T21:50:03.590Z,3.15
2018-03-07T21:52:32.733Z,1.62
2018-03-07T21:55:00.621Z,4.00
2018-03-07T21:57:28.144Z,3.08
2018-03-07T21:59:57.949Z,1.77
2018-03-07T22:02:26.184Z,2.10
2018-03-07T22:05:11.652Z,1.62
2018-03-07T22:07:40.637Z,3.67
2018-03-07T22:10:09.167Z,1.52
2018-03-07T22:12:40.709Z,2.25
2018-03-07T22:15:11.028Z,1.85
2018-03-07T22:17:40.044Z,3.83
2018-03-07T22:20:08.217Z,2.83
2018-03-07T22:22:37.717Z,2.55
2018-03-07T22:25:06.857Z,4.95
2018-03-07T22:27:34.710Z,4.10
2018-03-07T22:32:54.652Z,1.90
2018-03-07T22:35:22.380Z,1.80
2018-03-07T22:37:50.260Z,3.95
2018-03-07T22:40:18.722Z,1.90
2018-03-07T22:42:48.014Z,2.08
2018-03-07T22:45:16.438Z,4.57
2018-03-07T22:47:44.873Z,2.17
2018-03-07T22:50:14.145Z,2.17
2018-03-07T22:52:43.413Z,2.87
2018-03-07T22:55:12.524Z,2.97
2018-03-07T22:57:40.058Z,3.97
2018-03-07T23:00:14.585Z,3.75
2018-03-07T23:02:43.992Z,1.80
2018-03-07T23:05:12.865Z,2.58
2018-03-07T23:07:40.372Z,1.70
2018-03-07T23:10:07.913Z,3.22
2018-03-07T23:12:35.490Z,4.22
2018-03-07T23:15:08.311Z,3.65
2018-03-07T23:17:36.175Z,2.65
2018-03-07T23:20:04.729Z,2.15
2018-03-07T23:22:34.703Z,2.15
2018-03-07T23:28:00.482Z,4.75
2018-03-07T23:30:28.332Z,3.85
2018-03-07T23:32:56.616Z,3.30
2018-03-07T23:35:24.300Z,2.62
2018-03-07T23:37:51.901Z,3.35
2018-03-07T23:40:20.379Z,2.55
2018-03-07T23:42:48.343Z,2.65
2018-03-07T23:45:15.873Z,5.47
2018-03-07T23:47:43.454Z,3.45
2018-03-07T23:50:11.004Z,2.58
2018-03-07T23:52:40.234Z,2.60
2018-03-07T23:55:09.314Z,2.47
2018-03-07T23:57:38.674Z,2.40
